GUCY

Conakry Airport

Conakry, Guinea
TAF GUCY 182300Z 1900/2006 34006KT 5000 HZ FEW015 PROB30 TEMPO 1800/1904 07004KT 4000 HZ NSC BECMG 1905/1909 VRB02KT 1500 BR SCT015 TEMPO 1912/1914 5000 HZ SCT110
Issued Valid From Valid To
Jan-18 @ 23:00 UTC
(3 hours ago)
Jan-19 @ 00:00 UTC
(2 hours ago)
Jan-20 @ 06:00 UTC
(-1 days ago)
Jan-19 @ 00:00 to Jan-19 @ 05:00
TAF GUCY 182300Z 1900/2006 34006KT 5000 HZ FEW015
Wind Visibility Clouds Conditions
340° at 6 knots 5,005 meters
  • Few at 1,500' AGL
  • Haze
Temporary  (Probability 30%) Jan-18 @ 00:00 to Jan-19 @ 04:00
PROB30 TEMPO 1800/1904 07004KT 4000 HZ NSC
Wind Visibility Clouds Conditions
70° at 4 knots 4,007 meters
  • No significant clouds
  • Haze
Becoming Jan-19 @ 05:00 to Jan-20 @ 06:00
BECMG 1905/1909 VRB02KT 1500 BR SCT015
Wind Visibility Clouds Conditions
Variable at 2 knots 1,497 meters
  • Scattered at 1,500' AGL
  • Mist
Temporary Jan-19 @ 12:00 to Jan-19 @ 14:00
TEMPO 1912/1914 5000 HZ SCT110
Visibility Clouds Conditions
5,005 meters
  • Scattered at 11,000' AGL
  • Haze
TAF GUCY 182300Z 1900/2006 34006KT 5000 HZ FEW015 PROB30 TEMPO 1800/1904 07004KT 4000 HZ NSC BECMG 1905/1909 VRB02KT 1500 BR SCT015 TEMPO 1912/1914 5000 HZ SCT110
Issued Jan-18 @ 23:00 UTC
(3 hours ago)
Valid From Jan-19 @ 00:00 UTC
(2 hours ago)
Valid To Jan-20 @ 06:00 UTC
(-1 days ago)
Jan-19 @ 00:00 - Jan-19 @ 05:00
Wind Visibility
340° at 6 knots 5,005 meters
Clouds
  • Few at 1,500' AGL
Conditions
  • Haze
Probability 30% Temporary Jan-18 @ 00:00 - Jan-19 @ 04:00
Wind Visibility
70° at 4 knots 4,007 meters
Clouds
  • No significant clouds
Conditions
  • Haze
Becoming Jan-19 @ 05:00 - Jan-20 @ 06:00
Wind Visibility
Variable at 2 knots 1,497 meters
Clouds
  • Scattered at 1,500' AGL
Conditions
  • Mist
Temporary Jan-19 @ 12:00 - Jan-19 @ 14:00
Clouds
  • Scattered at 11,000' AGL
Conditions
  • Haze